sensor_id;sensor_type;location;lat;lon;timestamp;P1;durP1;ratioP1;P2;durP2;ratioP2
19084;SDS011;9675;51.538;6.728;2023-11-21T00:00:00;7.77;;;3.83;;
19084;SDS011;9675;51.538;6.728;2023-11-21T00:02:28;8.43;;;3.70;;
19084;SDS011;9675;51.538;6.728;2023-11-21T00:04:55;6.90;;;3.60;;
19084;SDS011;9675;51.538;6.728;2023-11-21T00:07:22;8.63;;;3.73;;
19084;SDS011;9675;51.538;6.728;2023-11-21T00:09:49;10.33;;;4.43;;
19084;SDS011;9675;51.538;6.728;2023-11-21T00:12:17;6.33;;;3.67;;
19084;SDS011;9675;51.538;6.728;2023-11-21T00:14:45;8.10;;;3.43;;
19084;SDS011;9675;51.538;6.728;2023-11-21T00:17:12;6.97;;;3.70;;
19084;SDS011;9675;51.538;6.728;2023-11-21T00:19:39;6.03;;;3.93;;
19084;SDS011;9675;51.538;6.728;2023-11-21T00:22:07;5.53;;;3.67;;
19084;SDS011;9675;51.538;6.728;2023-11-21T00:24:35;8.23;;;3.73;;
19084;SDS011;9675;51.538;6.728;2023-11-21T00:27:02;7.37;;;3.63;;
19084;SDS011;9675;51.538;6.728;2023-11-21T00:29:30;5.73;;;3.60;;
19084;SDS011;9675;51.538;6.728;2023-11-21T00:31:57;6.03;;;3.00;;
19084;SDS011;9675;51.538;6.728;2023-11-21T00:34:24;9.87;;;3.50;;
19084;SDS011;9675;51.538;6.728;2023-11-21T00:36:52;5.90;;;3.07;;
19084;SDS011;9675;51.538;6.728;2023-11-21T00:39:19;7.30;;;3.20;;
19084;SDS011;9675;51.538;6.728;2023-11-21T00:41:46;8.90;;;3.50;;
19084;SDS011;9675;51.538;6.728;2023-11-21T00:44:13;7.70;;;3.47;;
19084;SDS011;9675;51.538;6.728;2023-11-21T00:46:42;7.17;;;3.87;;
19084;SDS011;9675;51.538;6.728;2023-11-21T00:49:09;6.43;;;3.40;;
19084;SDS011;9675;51.538;6.728;2023-11-21T00:51:36;7.40;;;3.70;;
19084;SDS011;9675;51.538;6.728;2023-11-21T00:54:04;10.77;;;3.97;;
19084;SDS011;9675;51.538;6.728;2023-11-21T00:56:31;7.27;;;3.50;;
19084;SDS011;9675;51.538;6.728;2023-11-21T00:58:59;7.93;;;3.83;;
19084;SDS011;9675;51.538;6.728;2023-11-21T01:01:26;6.60;;;3.13;;
19084;SDS011;9675;51.538;6.728;2023-11-21T01:03:54;6.80;;;3.43;;
19084;SDS011;9675;51.538;6.728;2023-11-21T01:06:21;12.20;;;3.83;;
19084;SDS011;9675;51.538;6.728;2023-11-21T01:08:48;7.03;;;3.93;;
19084;SDS011;9675;51.538;6.728;2023-11-21T01:11:15;7.47;;;3.53;;
19084;SDS011;9675;51.538;6.728;2023-11-21T01:13:42;12.87;;;4.23;;
19084;SDS011;9675;51.538;6.728;2023-11-21T01:16:10;6.50;;;3.73;;
19084;SDS011;9675;51.538;6.728;2023-11-21T01:18:37;6.67;;;3.50;;
19084;SDS011;9675;51.538;6.728;2023-11-21T01:21:06;6.87;;;3.23;;
19084;SDS011;9675;51.538;6.728;2023-11-21T01:23:34;11.00;;;3.83;;
19084;SDS011;9675;51.538;6.728;2023-11-21T01:26:01;9.03;;;4.00;;
19084;SDS011;9675;51.538;6.728;2023-11-21T01:28:28;11.77;;;3.80;;
19084;SDS011;9675;51.538;6.728;2023-11-21T01:30:55;7.87;;;4.07;;
19084;SDS011;9675;51.538;6.728;2023-11-21T01:33:23;9.03;;;3.40;;
19084;SDS011;9675;51.538;6.728;2023-11-21T01:35:50;11.27;;;3.60;;
19084;SDS011;9675;51.538;6.728;2023-11-21T01:38:21;12.10;;;3.43;;
19084;SDS011;9675;51.538;6.728;2023-11-21T01:40:49;10.80;;;4.10;;
19084;SDS011;9675;51.538;6.728;2023-11-21T01:43:16;7.23;;;3.57;;
19084;SDS011;9675;51.538;6.728;2023-11-21T01:45:43;10.30;;;3.87;;
19084;SDS011;9675;51.538;6.728;2023-11-21T01:48:11;5.57;;;3.57;;
19084;SDS011;9675;51.538;6.728;2023-11-21T01:50:41;9.47;;;4.03;;
19084;SDS011;9675;51.538;6.728;2023-11-21T01:53:10;7.20;;;4.13;;
19084;SDS011;9675;51.538;6.728;2023-11-21T01:55:40;9.67;;;4.07;;
19084;SDS011;9675;51.538;6.728;2023-11-21T01:58:09;8.50;;;3.87;;
19084;SDS011;9675;51.538;6.728;2023-11-21T02:00:37;9.07;;;4.00;;
19084;SDS011;9675;51.538;6.728;2023-11-21T02:03:04;12.07;;;4.13;;
19084;SDS011;9675;51.538;6.728;2023-11-21T02:05:32;9.77;;;3.70;;
19084;SDS011;9675;51.538;6.728;2023-11-21T02:07:59;7.73;;;4.20;;
19084;SDS011;9675;51.538;6.728;2023-11-21T02:10:27;10.17;;;3.93;;
19084;SDS011;9675;51.538;6.728;2023-11-21T02:12:57;8.70;;;4.53;;
19084;SDS011;9675;51.538;6.728;2023-11-21T02:15:27;8.33;;;3.87;;
19084;SDS011;9675;51.538;6.728;2023-11-21T02:17:55;8.80;;;4.50;;
19084;SDS011;9675;51.538;6.728;2023-11-21T02:20:23;7.17;;;4.43;;
19084;SDS011;9675;51.538;6.728;2023-11-21T02:22:53;11.03;;;4.63;;
19084;SDS011;9675;51.538;6.728;2023-11-21T02:25:24;11.80;;;4.13;;
19084;SDS011;9675;51.538;6.728;2023-11-21T02:27:52;11.03;;;4.97;;
19084;SDS011;9675;51.538;6.728;2023-11-21T02:30:20;8.70;;;4.97;;
19084;SDS011;9675;51.538;6.728;2023-11-21T02:32:47;7.50;;;4.90;;
19084;SDS011;9675;51.538;6.728;2023-11-21T02:35:15;9.83;;;4.33;;
19084;SDS011;9675;51.538;6.728;2023-11-21T02:37:42;9.37;;;4.50;;
19084;SDS011;9675;51.538;6.728;2023-11-21T02:40:11;9.33;;;4.47;;
19084;SDS011;9675;51.538;6.728;2023-11-21T02:42:38;8.50;;;4.90;;
19084;SDS011;9675;51.538;6.728;2023-11-21T02:45:06;8.23;;;4.43;;
19084;SDS011;9675;51.538;6.728;2023-11-21T02:47:37;10.67;;;4.90;;
19084;SDS011;9675;51.538;6.728;2023-11-21T02:50:05;14.17;;;5.13;;
19084;SDS011;9675;51.538;6.728;2023-11-21T02:52:33;11.23;;;5.73;;
19084;SDS011;9675;51.538;6.728;2023-11-21T02:55:01;12.37;;;4.90;;
19084;SDS011;9675;51.538;6.728;2023-11-21T02:57:29;11.40;;;4.50;;
19084;SDS011;9675;51.538;6.728;2023-11-21T02:59:56;11.27;;;4.90;;
19084;SDS011;9675;51.538;6.728;2023-11-21T03:02:24;7.63;;;4.17;;
19084;SDS011;9675;51.538;6.728;2023-11-21T03:04:52;7.43;;;3.70;;
19084;SDS011;9675;51.538;6.728;2023-11-21T03:07:19;10.53;;;4.70;;
19084;SDS011;9675;51.538;6.728;2023-11-21T03:09:46;6.90;;;4.00;;
19084;SDS011;9675;51.538;6.728;2023-11-21T03:12:13;6.87;;;4.10;;
19084;SDS011;9675;51.538;6.728;2023-11-21T03:14:42;12.87;;;5.07;;
19084;SDS011;9675;51.538;6.728;2023-11-21T03:17:09;8.30;;;4.30;;
19084;SDS011;9675;51.538;6.728;2023-11-21T03:19:36;10.07;;;5.07;;
19084;SDS011;9675;51.538;6.728;2023-11-21T03:22:03;7.27;;;4.67;;
19084;SDS011;9675;51.538;6.728;2023-11-21T03:24:30;10.60;;;4.87;;
19084;SDS011;9675;51.538;6.728;2023-11-21T03:26:57;8.43;;;4.47;;
19084;SDS011;9675;51.538;6.728;2023-11-21T03:29:25;14.00;;;4.83;;
19084;SDS011;9675;51.538;6.728;2023-11-21T03:31:53;9.63;;;4.57;;
19084;SDS011;9675;51.538;6.728;2023-11-21T03:34:23;8.10;;;4.80;;
19084;SDS011;9675;51.538;6.728;2023-11-21T03:36:52;10.67;;;4.43;;
19084;SDS011;9675;51.538;6.728;2023-11-21T03:39:20;8.73;;;4.93;;
19084;SDS011;9675;51.538;6.728;2023-11-21T03:41:48;9.63;;;4.83;;
19084;SDS011;9675;51.538;6.728;2023-11-21T03:44:16;10.40;;;4.77;;
19084;SDS011;9675;51.538;6.728;2023-11-21T03:46:44;8.93;;;4.20;;
19084;SDS011;9675;51.538;6.728;2023-11-21T03:49:12;12.20;;;5.13;;
19084;SDS011;9675;51.538;6.728;2023-11-21T03:51:40;9.67;;;4.83;;
19084;SDS011;9675;51.538;6.728;2023-11-21T03:54:07;10.43;;;4.73;;
19084;SDS011;9675;51.538;6.728;2023-11-21T03:56:34;9.63;;;4.53;;
19084;SDS011;9675;51.538;6.728;2023-11-21T03:59:01;9.87;;;5.20;;
19084;SDS011;9675;51.538;6.728;2023-11-21T04:01:28;7.93;;;4.37;;
19084;SDS011;9675;51.538;6.728;2023-11-21T04:03:55;9.13;;;4.80;;
19084;SDS011;9675;51.538;6.728;2023-11-21T04:06:23;10.70;;;4.77;;
19084;SDS011;9675;51.538;6.728;2023-11-21T04:08:50;10.47;;;5.07;;
19084;SDS011;9675;51.538;6.728;2023-11-21T04:11:18;11.17;;;4.43;;
19084;SDS011;9675;51.538;6.728;2023-11-21T04:13:45;9.47;;;5.07;;
19084;SDS011;9675;51.538;6.728;2023-11-21T04:16:12;13.73;;;6.33;;
19084;SDS011;9675;51.538;6.728;2023-11-21T04:18:39;14.73;;;5.90;;
19084;SDS011;9675;51.538;6.728;2023-11-21T04:21:07;10.80;;;5.07;;
19084;SDS011;9675;51.538;6.728;2023-11-21T04:23:36;11.77;;;5.77;;
19084;SDS011;9675;51.538;6.728;2023-11-21T04:26:03;15.10;;;5.83;;
19084;SDS011;9675;51.538;6.728;2023-11-21T04:28:30;13.10;;;5.83;;
19084;SDS011;9675;51.538;6.728;2023-11-21T04:30:57;10.47;;;5.17;;
19084;SDS011;9675;51.538;6.728;2023-11-21T04:33:24;14.23;;;6.10;;
19084;SDS011;9675;51.538;6.728;2023-11-21T04:35:51;10.23;;;5.27;;
19084;SDS011;9675;51.538;6.728;2023-11-21T04:38:18;12.03;;;5.37;;
19084;SDS011;9675;51.538;6.728;2023-11-21T04:40:46;14.27;;;5.90;;
19084;SDS011;9675;51.538;6.728;2023-11-21T04:43:13;16.77;;;7.23;;
19084;SDS011;9675;51.538;6.728;2023-11-21T04:45:40;20.53;;;8.13;;
19084;SDS011;9675;51.538;6.728;2023-11-21T04:48:07;25.03;;;8.27;;
19084;SDS011;9675;51.538;6.728;2023-11-21T04:50:35;20.80;;;7.87;;
19084;SDS011;9675;51.538;6.728;2023-11-21T04:53:02;21.77;;;6.53;;
19084;SDS011;9675;51.538;6.728;2023-11-21T04:55:30;21.10;;;8.27;;
19084;SDS011;9675;51.538;6.728;2023-11-21T04:57:58;18.93;;;7.40;;
19084;SDS011;9675;51.538;6.728;2023-11-21T05:00:25;14.77;;;5.97;;
19084;SDS011;9675;51.538;6.728;2023-11-21T05:02:52;17.00;;;6.57;;
19084;SDS011;9675;51.538;6.728;2023-11-21T05:05:19;16.17;;;6.00;;
19084;SDS011;9675;51.538;6.728;2023-11-21T05:07:47;15.00;;;6.03;;
19084;SDS011;9675;51.538;6.728;2023-11-21T05:10:15;14.37;;;7.10;;
19084;SDS011;9675;51.538;6.728;2023-11-21T05:12:42;14.30;;;6.67;;
19084;SDS011;9675;51.538;6.728;2023-11-21T05:15:14;18.53;;;7.40;;
19084;SDS011;9675;51.538;6.728;2023-11-21T05:17:42;23.77;;;10.20;;
19084;SDS011;9675;51.538;6.728;2023-11-21T05:20:10;45.60;;;17.43;;
19084;SDS011;9675;51.538;6.728;2023-11-21T05:22:39;46.13;;;20.37;;
19084;SDS011;9675;51.538;6.728;2023-11-21T05:25:07;40.43;;;17.30;;
19084;SDS011;9675;51.538;6.728;2023-11-21T05:27:34;32.07;;;12.43;;
19084;SDS011;9675;51.538;6.728;2023-11-21T05:30:02;40.50;;;13.00;;
19084;SDS011;9675;51.538;6.728;2023-11-21T05:32:33;27.70;;;12.67;;
19084;SDS011;9675;51.538;6.728;2023-11-21T05:35:00;18.97;;;8.57;;
19084;SDS011;9675;51.538;6.728;2023-11-21T05:37:27;24.20;;;9.63;;
19084;SDS011;9675;51.538;6.728;2023-11-21T05:39:55;16.77;;;8.13;;
19084;SDS011;9675;51.538;6.728;2023-11-21T05:42:22;22.93;;;9.03;;
19084;SDS011;9675;51.538;6.728;2023-11-21T05:44:49;20.90;;;9.73;;
19084;SDS011;9675;51.538;6.728;2023-11-21T05:47:16;19.57;;;8.50;;
19084;SDS011;9675;51.538;6.728;2023-11-21T05:49:45;20.43;;;9.83;;
19084;SDS011;9675;51.538;6.728;2023-11-21T05:52:15;22.73;;;9.10;;
19084;SDS011;9675;51.538;6.728;2023-11-21T05:54:42;20.47;;;8.50;;
19084;SDS011;9675;51.538;6.728;2023-11-21T05:57:09;17.57;;;7.77;;
19084;SDS011;9675;51.538;6.728;2023-11-21T05:59:37;21.33;;;8.27;;
19084;SDS011;9675;51.538;6.728;2023-11-21T06:02:04;14.70;;;7.50;;
19084;SDS011;9675;51.538;6.728;2023-11-21T06:04:32;23.80;;;9.30;;
19084;SDS011;9675;51.538;6.728;2023-11-21T06:07:01;18.40;;;7.77;;
19084;SDS011;9675;51.538;6.728;2023-11-21T06:09:29;20.00;;;9.10;;
19084;SDS011;9675;51.538;6.728;2023-11-21T06:11:56;17.73;;;8.00;;
19084;SDS011;9675;51.538;6.728;2023-11-21T06:14:23;17.60;;;7.77;;
19084;SDS011;9675;51.538;6.728;2023-11-21T06:16:50;23.97;;;9.07;;
19084;SDS011;9675;51.538;6.728;2023-11-21T06:19:17;18.17;;;8.20;;
19084;SDS011;9675;51.538;6.728;2023-11-21T06:21:45;24.57;;;10.17;;
19084;SDS011;9675;51.538;6.728;2023-11-21T06:24:14;21.40;;;9.03;;
19084;SDS011;9675;51.538;6.728;2023-11-21T06:26:42;20.23;;;8.50;;
19084;SDS011;9675;51.538;6.728;2023-11-21T06:29:10;21.87;;;8.37;;
19084;SDS011;9675;51.538;6.728;2023-11-21T06:31:37;17.70;;;8.67;;
19084;SDS011;9675;51.538;6.728;2023-11-21T06:34:05;16.67;;;7.77;;
19084;SDS011;9675;51.538;6.728;2023-11-21T06:36:34;21.27;;;8.47;;
19084;SDS011;9675;51.538;6.728;2023-11-21T06:39:01;25.80;;;9.40;;
19084;SDS011;9675;51.538;6.728;2023-11-21T06:41:33;15.70;;;7.60;;
19084;SDS011;9675;51.538;6.728;2023-11-21T06:44:00;20.67;;;8.40;;
19084;SDS011;9675;51.538;6.728;2023-11-21T06:46:27;22.33;;;10.13;;
19084;SDS011;9675;51.538;6.728;2023-11-21T06:48:54;24.33;;;10.13;;
19084;SDS011;9675;51.538;6.728;2023-11-21T06:51:21;17.17;;;8.33;;
19084;SDS011;9675;51.538;6.728;2023-11-21T06:53:48;18.53;;;9.03;;
19084;SDS011;9675;51.538;6.728;2023-11-21T06:56:16;20.97;;;9.10;;
19084;SDS011;9675;51.538;6.728;2023-11-21T06:58:45;20.33;;;8.67;;
19084;SDS011;9675;51.538;6.728;2023-11-21T07:01:12;19.57;;;8.60;;
19084;SDS011;9675;51.538;6.728;2023-11-21T07:03:40;15.60;;;7.97;;
19084;SDS011;9675;51.538;6.728;2023-11-21T07:06:07;16.03;;;7.33;;
19084;SDS011;9675;51.538;6.728;2023-11-21T07:08:35;16.23;;;7.80;;
19084;SDS011;9675;51.538;6.728;2023-11-21T07:11:02;15.30;;;7.23;;
19084;SDS011;9675;51.538;6.728;2023-11-21T07:13:29;22.43;;;7.73;;
19084;SDS011;9675;51.538;6.728;2023-11-21T07:15:59;19.00;;;7.47;;
19084;SDS011;9675;51.538;6.728;2023-11-21T07:18:26;22.00;;;8.13;;
19084;SDS011;9675;51.538;6.728;2023-11-21T07:20:53;15.77;;;6.70;;
19084;SDS011;9675;51.538;6.728;2023-11-21T07:23:20;15.40;;;8.40;;
19084;SDS011;9675;51.538;6.728;2023-11-21T07:25:47;17.13;;;7.07;;
19084;SDS011;9675;51.538;6.728;2023-11-21T07:28:14;15.67;;;6.90;;
19084;SDS011;9675;51.538;6.728;2023-11-21T07:30:42;16.33;;;7.87;;
19084;SDS011;9675;51.538;6.728;2023-11-21T07:33:10;17.90;;;8.40;;
19084;SDS011;9675;51.538;6.728;2023-11-21T07:35:37;13.70;;;7.07;;
19084;SDS011;9675;51.538;6.728;2023-11-21T07:38:04;17.20;;;7.33;;
19084;SDS011;9675;51.538;6.728;2023-11-21T07:40:31;18.13;;;7.20;;
19084;SDS011;9675;51.538;6.728;2023-11-21T07:42:58;16.23;;;6.70;;
19084;SDS011;9675;51.538;6.728;2023-11-21T07:45:27;20.50;;;8.90;;
19084;SDS011;9675;51.538;6.728;2023-11-21T07:47:55;18.43;;;8.50;;
19084;SDS011;9675;51.538;6.728;2023-11-21T07:50:23;15.57;;;7.77;;
19084;SDS011;9675;51.538;6.728;2023-11-21T07:52:51;16.97;;;7.40;;
19084;SDS011;9675;51.538;6.728;2023-11-21T07:55:19;17.30;;;7.60;;
19084;SDS011;9675;51.538;6.728;2023-11-21T07:57:46;21.10;;;9.33;;
19084;SDS011;9675;51.538;6.728;2023-11-21T08:00:13;16.87;;;7.67;;
19084;SDS011;9675;51.538;6.728;2023-11-21T08:02:41;20.93;;;9.20;;
19084;SDS011;9675;51.538;6.728;2023-11-21T08:05:11;20.63;;;9.00;;
19084;SDS011;9675;51.538;6.728;2023-11-21T08:07:39;12.17;;;6.47;;
19084;SDS011;9675;51.538;6.728;2023-11-21T08:10:07;18.40;;;7.87;;
19084;SDS011;9675;51.538;6.728;2023-11-21T08:12:36;19.30;;;8.47;;
19084;SDS011;9675;51.538;6.728;2023-11-21T08:15:04;18.50;;;8.37;;
19084;SDS011;9675;51.538;6.728;2023-11-21T08:17:32;17.33;;;8.23;;
19084;SDS011;9675;51.538;6.728;2023-11-21T08:20:00;19.40;;;6.53;;
19084;SDS011;9675;51.538;6.728;2023-11-21T08:22:28;20.90;;;8.83;;
19084;SDS011;9675;51.538;6.728;2023-11-21T08:24:57;22.03;;;9.33;;
19084;SDS011;9675;51.538;6.728;2023-11-21T08:27:24;21.33;;;8.40;;
19084;SDS011;9675;51.538;6.728;2023-11-21T08:29:51;18.57;;;7.73;;
19084;SDS011;9675;51.538;6.728;2023-11-21T08:32:19;14.47;;;7.37;;
19084;SDS011;9675;51.538;6.728;2023-11-21T08:34:46;17.10;;;7.00;;
19084;SDS011;9675;51.538;6.728;2023-11-21T08:37:15;19.23;;;7.80;;
19084;SDS011;9675;51.538;6.728;2023-11-21T08:39:43;20.63;;;7.50;;
19084;SDS011;9675;51.538;6.728;2023-11-21T08:42:12;19.10;;;8.07;;
19084;SDS011;9675;51.538;6.728;2023-11-21T08:44:39;16.97;;;7.10;;
19084;SDS011;9675;51.538;6.728;2023-11-21T08:47:06;17.13;;;7.60;;
19084;SDS011;9675;51.538;6.728;2023-11-21T08:49:33;16.20;;;7.40;;
19084;SDS011;9675;51.538;6.728;2023-11-21T08:52:00;19.47;;;7.80;;
19084;SDS011;9675;51.538;6.728;2023-11-21T08:54:27;19.63;;;7.33;;
19084;SDS011;9675;51.538;6.728;2023-11-21T08:56:54;13.50;;;6.73;;
19084;SDS011;9675;51.538;6.728;2023-11-21T08:59:24;15.97;;;7.07;;
19084;SDS011;9675;51.538;6.728;2023-11-21T09:01:51;17.37;;;8.40;;
19084;SDS011;9675;51.538;6.728;2023-11-21T09:04:18;17.33;;;7.83;;
19084;SDS011;9675;51.538;6.728;2023-11-21T09:06:45;19.13;;;6.33;;
19084;SDS011;9675;51.538;6.728;2023-11-21T09:09:12;16.67;;;7.13;;
19084;SDS011;9675;51.538;6.728;2023-11-21T09:11:39;21.57;;;8.03;;
19084;SDS011;9675;51.538;6.728;2023-11-21T09:14:07;16.00;;;7.33;;
19084;SDS011;9675;51.538;6.728;2023-11-21T09:16:36;19.87;;;7.17;;
19084;SDS011;9675;51.538;6.728;2023-11-21T09:19:04;19.47;;;7.73;;
19084;SDS011;9675;51.538;6.728;2023-11-21T09:21:31;16.27;;;6.83;;
19084;SDS011;9675;51.538;6.728;2023-11-21T09:23:59;14.70;;;6.73;;
19084;SDS011;9675;51.538;6.728;2023-11-21T09:26:27;17.80;;;7.17;;
19084;SDS011;9675;51.538;6.728;2023-11-21T09:28:55;13.33;;;7.13;;
19084;SDS011;9675;51.538;6.728;2023-11-21T09:31:22;15.63;;;6.60;;
19084;SDS011;9675;51.538;6.728;2023-11-21T09:33:50;14.07;;;6.37;;
19084;SDS011;9675;51.538;6.728;2023-11-21T09:36:18;18.33;;;7.60;;
19084;SDS011;9675;51.538;6.728;2023-11-21T09:38:46;22.30;;;9.17;;
19084;SDS011;9675;51.538;6.728;2023-11-21T09:41:15;28.57;;;9.23;;
19084;SDS011;9675;51.538;6.728;2023-11-21T09:43:57;22.47;;;8.23;;
19084;SDS011;9675;51.538;6.728;2023-11-21T09:46:25;26.83;;;10.07;;
19084;SDS011;9675;51.538;6.728;2023-11-21T09:48:56;25.77;;;9.07;;
19084;SDS011;9675;51.538;6.728;2023-11-21T09:51:30;19.27;;;8.70;;
19084;SDS011;9675;51.538;6.728;2023-11-21T09:54:03;39.47;;;11.13;;
19084;SDS011;9675;51.538;6.728;2023-11-21T09:56:34;23.53;;;8.17;;
19084;SDS011;9675;51.538;6.728;2023-11-21T09:59:01;21.43;;;8.40;;
19084;SDS011;9675;51.538;6.728;2023-11-21T10:01:32;20.30;;;7.47;;
19084;SDS011;9675;51.538;6.728;2023-11-21T10:04:04;23.07;;;9.07;;
19084;SDS011;9675;51.538;6.728;2023-11-21T10:06:36;25.00;;;9.50;;
19084;SDS011;9675;51.538;6.728;2023-11-21T10:09:06;39.63;;;11.43;;
19084;SDS011;9675;51.538;6.728;2023-11-21T10:11:37;17.80;;;8.10;;
19084;SDS011;9675;51.538;6.728;2023-11-21T10:14:07;23.13;;;8.47;;
19084;SDS011;9675;51.538;6.728;2023-11-21T10:16:38;24.80;;;8.33;;
19084;SDS011;9675;51.538;6.728;2023-11-21T10:19:08;25.37;;;9.93;;
19084;SDS011;9675;51.538;6.728;2023-11-21T10:21:39;28.40;;;10.13;;
19084;SDS011;9675;51.538;6.728;2023-11-21T10:24:06;33.03;;;10.00;;
19084;SDS011;9675;51.538;6.728;2023-11-21T10:26:34;27.77;;;10.57;;
19084;SDS011;9675;51.538;6.728;2023-11-21T10:29:02;26.27;;;9.07;;
19084;SDS011;9675;51.538;6.728;2023-11-21T10:31:30;22.73;;;8.60;;
19084;SDS011;9675;51.538;6.728;2023-11-21T10:34:10;28.33;;;8.73;;
19084;SDS011;9675;51.538;6.728;2023-11-21T10:36:42;23.27;;;7.23;;
19084;SDS011;9675;51.538;6.728;2023-11-21T10:39:13;25.97;;;8.60;;
19084;SDS011;9675;51.538;6.728;2023-11-21T10:41:44;24.63;;;8.37;;
19084;SDS011;9675;51.538;6.728;2023-11-21T10:44:13;20.23;;;8.27;;
19084;SDS011;9675;51.538;6.728;2023-11-21T10:46:45;21.50;;;8.83;;
19084;SDS011;9675;51.538;6.728;2023-11-21T10:49:17;27.83;;;10.33;;
19084;SDS011;9675;51.538;6.728;2023-11-21T10:51:44;23.67;;;9.53;;
19084;SDS011;9675;51.538;6.728;2023-11-21T10:54:16;26.23;;;9.77;;
19084;SDS011;9675;51.538;6.728;2023-11-21T10:56:45;26.57;;;9.00;;
19084;SDS011;9675;51.538;6.728;2023-11-21T10:59:16;26.87;;;8.87;;
19084;SDS011;9675;51.538;6.728;2023-11-21T11:01:46;21.67;;;8.97;;
19084;SDS011;9675;51.538;6.728;2023-11-21T11:04:16;24.83;;;9.53;;
19084;SDS011;9675;51.538;6.728;2023-11-21T11:06:48;25.63;;;8.97;;
19084;SDS011;9675;51.538;6.728;2023-11-21T11:09:21;24.33;;;8.70;;
19084;SDS011;9675;51.538;6.728;2023-11-21T11:11:49;26.37;;;9.00;;
19084;SDS011;9675;51.538;6.728;2023-11-21T11:14:18;20.63;;;8.37;;
19084;SDS011;9675;51.538;6.728;2023-11-21T11:16:50;24.07;;;9.00;;
19084;SDS011;9675;51.538;6.728;2023-11-21T11:19:21;28.40;;;8.33;;
19084;SDS011;9675;51.538;6.728;2023-11-21T11:22:00;26.30;;;9.10;;
19084;SDS011;9675;51.538;6.728;2023-11-21T11:24:49;19.53;;;8.23;;
19084;SDS011;9675;51.538;6.728;2023-11-21T11:27:44;21.07;;;8.47;;
19084;SDS011;9675;51.538;6.728;2023-11-21T11:30:26;20.17;;;7.47;;
19084;SDS011;9675;51.538;6.728;2023-11-21T11:33:09;26.10;;;9.53;;
19084;SDS011;9675;51.538;6.728;2023-11-21T11:35:52;21.67;;;7.53;;
19084;SDS011;9675;51.538;6.728;2023-11-21T11:38:30;21.70;;;7.67;;
19084;SDS011;9675;51.538;6.728;2023-11-21T11:41:01;21.63;;;7.47;;
19084;SDS011;9675;51.538;6.728;2023-11-21T11:43:30;23.60;;;8.90;;
19084;SDS011;9675;51.538;6.728;2023-11-21T11:46:05;23.73;;;8.20;;
19084;SDS011;9675;51.538;6.728;2023-11-21T11:48:34;23.03;;;7.77;;
19084;SDS011;9675;51.538;6.728;2023-11-21T11:51:07;25.37;;;8.23;;
19084;SDS011;9675;51.538;6.728;2023-11-21T11:53:39;22.60;;;8.47;;
19084;SDS011;9675;51.538;6.728;2023-11-21T11:56:21;19.83;;;7.67;;
19084;SDS011;9675;51.538;6.728;2023-11-21T11:58:51;18.80;;;7.90;;
19084;SDS011;9675;51.538;6.728;2023-11-21T12:01:20;24.17;;;8.47;;
19084;SDS011;9675;51.538;6.728;2023-11-21T12:07:01;18.87;;;6.40;;
19084;SDS011;9675;51.538;6.728;2023-11-21T12:09:29;15.83;;;6.27;;
19084;SDS011;9675;51.538;6.728;2023-11-21T12:11:58;17.27;;;7.77;;
19084;SDS011;9675;51.538;6.728;2023-11-21T12:14:26;19.67;;;7.20;;
19084;SDS011;9675;51.538;6.728;2023-11-21T12:16:54;20.10;;;7.13;;
19084;SDS011;9675;51.538;6.728;2023-11-21T12:19:21;20.17;;;6.83;;
19084;SDS011;9675;51.538;6.728;2023-11-21T12:21:48;21.73;;;6.97;;
19084;SDS011;9675;51.538;6.728;2023-11-21T12:24:18;10.17;;;4.90;;
19084;SDS011;9675;51.538;6.728;2023-11-21T12:26:45;16.57;;;6.20;;
19084;SDS011;9675;51.538;6.728;2023-11-21T12:29:13;15.67;;;6.43;;
19084;SDS011;9675;51.538;6.728;2023-11-21T12:31:41;16.37;;;5.70;;
19084;SDS011;9675;51.538;6.728;2023-11-21T12:34:09;18.40;;;6.83;;
19084;SDS011;9675;51.538;6.728;2023-11-21T12:36:37;18.37;;;6.43;;
19084;SDS011;9675;51.538;6.728;2023-11-21T12:39:05;13.97;;;5.83;;
19084;SDS011;9675;51.538;6.728;2023-11-21T12:41:35;15.33;;;5.67;;
19084;SDS011;9675;51.538;6.728;2023-11-21T12:44:02;9.57;;;4.27;;
19084;SDS011;9675;51.538;6.728;2023-11-21T12:46:30;13.83;;;5.83;;
19084;SDS011;9675;51.538;6.728;2023-11-21T12:48:59;18.10;;;6.03;;
19084;SDS011;9675;51.538;6.728;2023-11-21T12:51:26;18.47;;;4.93;;
19084;SDS011;9675;51.538;6.728;2023-11-21T12:53:54;15.77;;;6.30;;
19084;SDS011;9675;51.538;6.728;2023-11-21T12:56:23;14.33;;;5.93;;
19084;SDS011;9675;51.538;6.728;2023-11-21T12:58:53;11.23;;;4.70;;
19084;SDS011;9675;51.538;6.728;2023-11-21T13:01:25;13.30;;;6.03;;
19084;SDS011;9675;51.538;6.728;2023-11-21T13:03:55;16.03;;;6.87;;
19084;SDS011;9675;51.538;6.728;2023-11-21T13:06:24;15.60;;;6.20;;
19084;SDS011;9675;51.538;6.728;2023-11-21T13:08:52;10.57;;;4.70;;
19084;SDS011;9675;51.538;6.728;2023-11-21T13:11:22;11.33;;;5.00;;
19084;SDS011;9675;51.538;6.728;2023-11-21T13:13:52;14.83;;;5.53;;
19084;SDS011;9675;51.538;6.728;2023-11-21T13:16:21;15.07;;;6.17;;
19084;SDS011;9675;51.538;6.728;2023-11-21T13:18:48;11.67;;;5.70;;
19084;SDS011;9675;51.538;6.728;2023-11-21T13:21:16;7.13;;;2.33;;
19084;SDS011;9675;51.538;6.728;2023-11-21T13:23:43;17.57;;;5.87;;
19084;SDS011;9675;51.538;6.728;2023-11-21T13:26:11;9.80;;;4.70;;
19084;SDS011;9675;51.538;6.728;2023-11-21T13:28:39;17.00;;;6.63;;
19084;SDS011;9675;51.538;6.728;2023-11-21T13:31:12;14.27;;;5.90;;
19084;SDS011;9675;51.538;6.728;2023-11-21T13:33:50;13.10;;;6.57;;
19084;SDS011;9675;51.538;6.728;2023-11-21T13:36:20;15.03;;;5.50;;
19084;SDS011;9675;51.538;6.728;2023-11-21T13:38:48;19.47;;;7.07;;
19084;SDS011;9675;51.538;6.728;2023-11-21T13:41:17;2.60;;;1.73;;
19084;SDS011;9675;51.538;6.728;2023-11-21T13:43:45;14.23;;;5.90;;
19084;SDS011;9675;51.538;6.728;2023-11-21T13:46:20;12.90;;;5.97;;
19084;SDS011;9675;51.538;6.728;2023-11-21T13:48:48;16.13;;;6.67;;
19084;SDS011;9675;51.538;6.728;2023-11-21T13:51:21;15.00;;;7.20;;
19084;SDS011;9675;51.538;6.728;2023-11-21T13:53:56;19.87;;;6.77;;
19084;SDS011;9675;51.538;6.728;2023-11-21T13:56:24;13.87;;;6.07;;
19084;SDS011;9675;51.538;6.728;2023-11-21T13:58:53;18.77;;;7.30;;
19084;SDS011;9675;51.538;6.728;2023-11-21T14:01:23;15.73;;;5.67;;
19084;SDS011;9675;51.538;6.728;2023-11-21T14:04:10;12.73;;;5.47;;
19084;SDS011;9675;51.538;6.728;2023-11-21T14:06:45;18.43;;;6.83;;
19084;SDS011;9675;51.538;6.728;2023-11-21T14:09:14;10.33;;;4.80;;
19084;SDS011;9675;51.538;6.728;2023-11-21T14:11:48;21.50;;;8.47;;
19084;SDS011;9675;51.538;6.728;2023-11-21T14:14:18;10.83;;;5.00;;
19084;SDS011;9675;51.538;6.728;2023-11-21T14:16:48;9.33;;;3.37;;
19084;SDS011;9675;51.538;6.728;2023-11-21T14:19:16;18.37;;;7.37;;
19084;SDS011;9675;51.538;6.728;2023-11-21T14:21:43;14.50;;;6.17;;
19084;SDS011;9675;51.538;6.728;2023-11-21T14:24:13;12.13;;;5.40;;
19084;SDS011;9675;51.538;6.728;2023-11-21T14:26:43;9.90;;;4.93;;
19084;SDS011;9675;51.538;6.728;2023-11-21T14:29:12;14.93;;;6.33;;
19084;SDS011;9675;51.538;6.728;2023-11-21T14:31:41;9.93;;;4.80;;
19084;SDS011;9675;51.538;6.728;2023-11-21T14:34:10;13.83;;;5.47;;
19084;SDS011;9675;51.538;6.728;2023-11-21T14:36:40;14.07;;;5.07;;
19084;SDS011;9675;51.538;6.728;2023-11-21T14:39:08;13.77;;;6.13;;
19084;SDS011;9675;51.538;6.728;2023-11-21T14:41:48;14.77;;;5.77;;
19084;SDS011;9675;51.538;6.728;2023-11-21T14:44:15;12.00;;;4.77;;
19084;SDS011;9675;51.538;6.728;2023-11-21T14:46:42;13.93;;;5.57;;
19084;SDS011;9675;51.538;6.728;2023-11-21T14:49:16;13.57;;;6.23;;
19084;SDS011;9675;51.538;6.728;2023-11-21T14:51:46;17.13;;;6.33;;
19084;SDS011;9675;51.538;6.728;2023-11-21T14:54:25;17.33;;;7.83;;
19084;SDS011;9675;51.538;6.728;2023-11-21T14:57:05;8.83;;;4.23;;
19084;SDS011;9675;51.538;6.728;2023-11-21T14:59:36;9.30;;;5.07;;
19084;SDS011;9675;51.538;6.728;2023-11-21T15:02:03;7.17;;;3.93;;